Time;durP1;ratioP1;P1;durP2;ratioP2;P2;SDS_P1;SDS_P2;PMS_P1;PMS_P2;Temp;Humidity;BMP_temperature;BMP_pressure;BME280_temperature;BME280_humidity;BME280_pressure;Samples;Min_cycle;Max_cycle;Signal;HPM_P1;HPM_P2
2023/05/03 00:00:01;;;;;;;0.50;0.10;;;5.70;99.90;;;;;;4992292;28;20490;-81
2023/05/03 00:02:27;;;;;;;1.05;0.20;;;5.60;99.90;;;;;;5004625;28;20065;-81
2023/05/03 00:04:53;;;;;;;0.65;0.10;;;5.60;99.90;;;;;;5004305;28;20038;-81
2023/05/03 00:07:20;;;;;;;2.15;0.20;;;5.50;99.90;;;;;;4992517;28;20025;-81
2023/05/03 00:09:48;;;;;;;0.60;0.20;;;5.50;99.90;;;;;;4992023;28;20030;-81
2023/05/03 00:12:14;;;;;;;1.38;0.20;;;5.50;99.90;;;;;;4992171;28;20115;-82
2023/05/03 00:14:40;;;;;;;2.00;0.20;;;5.40;99.90;;;;;;4991214;28;20579;-81
2023/05/03 00:17:05;;;;;;;2.58;0.20;;;5.30;99.90;;;;;;4991915;28;20379;-82
2023/05/03 00:19:32;;;;;;;1.42;0.20;;;5.30;99.90;;;;;;5008434;28;20649;-82
2023/05/03 00:21:58;;;;;;;1.60;0.20;;;5.30;99.90;;;;;;4989232;28;20033;-82
2023/05/03 00:24:24;;;;;;;0.82;0.17;;;5.30;99.90;;;;;;5006765;28;20034;-81
2023/05/03 00:26:50;;;;;;;1.90;0.20;;;5.30;99.90;;;;;;4992672;28;20030;-81
2023/05/03 00:29:15;;;;;;;2.10;0.20;;;5.20;99.90;;;;;;5015328;28;20057;-82
2023/05/03 00:31:44;;;;;;;1.13;0.20;;;5.20;99.90;;;;;;4991512;28;20037;-81
2023/05/03 00:34:10;;;;;;;2.17;0.45;;;5.20;99.90;;;;;;4991806;28;20485;-81
2023/05/03 00:36:35;;;;;;;1.45;0.30;;;5.20;99.90;;;;;;4991074;28;20034;-81
2023/05/03 00:39:02;;;;;;;0.93;0.20;;;5.10;99.90;;;;;;4988106;28;20030;-81
2023/05/03 00:41:27;;;;;;;1.60;0.20;;;5.10;99.90;;;;;;5002865;28;20085;-81
2023/05/03 00:43:53;;;;;;;1.90;0.22;;;5.00;99.90;;;;;;5008076;28;20042;-82
2023/05/03 00:46:19;;;;;;;0.90;0.30;;;5.00;99.90;;;;;;5007535;28;20022;-81
2023/05/03 00:48:47;;;;;;;1.05;0.30;;;5.00;99.90;;;;;;5006398;28;20042;-81
2023/05/03 00:51:14;;;;;;;2.70;0.43;;;5.00;99.90;;;;;;5008270;28;20026;-81
2023/05/03 00:53:42;;;;;;;0.80;0.30;;;4.90;99.90;;;;;;5024390;28;20038;-81
2023/05/03 00:56:08;;;;;;;2.28;0.20;;;4.90;99.90;;;;;;5007643;28;20033;-83
2023/05/03 00:58:38;;;;;;;2.08;0.30;;;4.90;99.90;;;;;;4998968;28;20030;-82
2023/05/03 01:01:06;;;;;;;1.42;0.28;;;4.80;99.90;;;;;;5007660;28;20032;-81
2023/05/03 01:03:32;;;;;;;1.23;0.30;;;4.80;99.90;;;;;;5006326;28;20038;-81
2023/05/03 01:06:09;;;;;;;2.58;0.30;;;4.80;99.90;;;;;;5024335;28;20038;-81
2023/05/03 01:08:43;;;;;;;0.60;0.20;;;4.70;99.90;;;;;;5007759;28;20500;-81
2023/05/03 01:11:30;;;;;;;1.42;0.25;;;4.80;99.90;;;;;;4989127;28;20029;-82
2023/05/03 01:14:26;;;;;;;1.45;0.30;;;4.70;99.90;;;;;;4986871;28;20190;-80
2023/05/03 01:16:57;;;;;;;1.00;0.30;;;4.80;99.90;;;;;;5008490;28;20490;-81
2023/05/03 01:19:32;;;;;;;1.80;0.28;;;4.70;99.90;;;;;;5009210;28;20029;-81
2023/05/03 01:22:28;;;;;;;1.92;0.28;;;4.60;99.90;;;;;;5007136;28;20060;-81
2023/05/03 01:25:06;;;;;;;1.10;0.20;;;4.70;99.90;;;;;;4986830;28;20037;-80
2023/05/03 01:27:32;;;;;;;1.95;0.30;;;4.60;99.90;;;;;;4990783;28;20026;-81
2023/05/03 01:29:58;;;;;;;2.00;0.30;;;4.50;99.90;;;;;;5006535;28;20164;-81
2023/05/03 01:33:07;;;;;;;3.20;0.20;;;4.60;99.90;;;;;;5008018;28;20026;-81
2023/05/03 01:35:49;;;;;;;1.15;0.40;;;4.50;99.90;;;;;;4986744;28;20038;-80
2023/05/03 01:38:16;;;;;;;1.23;0.93;;;4.50;99.90;;;;;;4991162;28;20034;-81
2023/05/03 01:40:49;;;;;;;0.90;0.30;;;4.50;99.90;;;;;;4992887;28;20072;-81
2023/05/03 01:43:17;;;;;;;2.03;0.40;;;4.40;99.90;;;;;;4990166;28;20069;-81
2023/05/03 01:45:45;;;;;;;2.00;0.30;;;4.40;99.90;;;;;;5011086;28;20553;-81
2023/05/03 01:48:13;;;;;;;1.05;0.20;;;4.40;99.90;;;;;;5010925;28;20478;-81
2023/05/03 01:50:39;;;;;;;1.58;0.25;;;4.30;99.90;;;;;;5010285;28;20029;-80
2023/05/03 01:53:05;;;;;;;2.97;0.30;;;4.20;99.90;;;;;;5010851;28;20034;-81
2023/05/03 01:55:31;;;;;;;1.23;0.30;;;4.30;99.90;;;;;;4994287;28;20338;-81
2023/05/03 01:57:57;;;;;;;0.82;0.25;;;4.30;99.90;;;;;;5008962;28;20501;-81
2023/05/03 02:00:22;;;;;;;0.70;0.30;;;4.20;99.90;;;;;;4994814;28;20121;-81
2023/05/03 02:02:48;;;;;;;1.73;0.30;;;4.20;99.90;;;;;;5010399;28;20038;-81
2023/05/03 02:05:14;;;;;;;2.20;0.30;;;4.20;99.90;;;;;;5008991;28;20056;-81
2023/05/03 02:07:39;;;;;;;0.50;0.20;;;4.20;99.90;;;;;;5009850;28;20034;-81
2023/05/03 02:10:06;;;;;;;0.88;0.20;;;4.10;99.90;;;;;;4994921;28;20034;-81
2023/05/03 02:12:32;;;;;;;0.65;0.30;;;4.10;99.90;;;;;;4993522;28;20018;-80
2023/05/03 02:14:57;;;;;;;0.70;0.20;;;4.10;99.90;;;;;;4993286;28;20136;-80
2023/05/03 02:17:25;;;;;;;2.25;0.38;;;4.10;99.90;;;;;;5010961;28;20022;-81
2023/05/03 02:19:54;;;;;;;0.75;0.30;;;4.20;99.90;;;;;;4991180;28;20030;-81
2023/05/03 02:22:20;;;;;;;0.43;0.20;;;4.20;99.90;;;;;;5009551;28;20030;-81
2023/05/03 02:24:46;;;;;;;1.50;0.52;;;4.20;99.90;;;;;;4993506;28;20053;-81
2023/05/03 02:27:12;;;;;;;1.80;0.25;;;4.10;99.90;;;;;;4993832;28;20399;-81
2023/05/03 02:29:38;;;;;;;1.42;0.30;;;4.10;99.90;;;;;;5009425;28;20029;-81
2023/05/03 02:32:05;;;;;;;0.80;0.30;;;4.10;99.90;;;;;;4994255;28;20022;-80
2023/05/03 02:34:31;;;;;;;0.73;0.30;;;4.00;99.90;;;;;;5010906;28;20112;-80
2023/05/03 02:36:57;;;;;;;0.73;0.30;;;4.00;99.90;;;;;;5026728;28;20030;-81
2023/05/03 02:39:23;;;;;;;1.17;0.30;;;3.90;99.90;;;;;;5010240;28;20026;-80
2023/05/03 02:41:49;;;;;;;1.95;0.30;;;3.90;99.90;;;;;;5010086;28;20569;-80
2023/05/03 02:44:15;;;;;;;0.70;0.30;;;3.90;99.90;;;;;;4988378;28;20092;-80
2023/05/03 02:46:41;;;;;;;0.77;0.30;;;3.80;99.90;;;;;;5010806;28;20055;-80
2023/05/03 02:49:07;;;;;;;1.05;0.20;;;3.80;99.90;;;;;;5006728;28;20030;-80
2023/05/03 02:51:34;;;;;;;1.13;0.30;;;3.80;99.90;;;;;;5009760;28;20021;-80
2023/05/03 02:54:00;;;;;;;1.58;0.30;;;3.90;99.90;;;;;;5004300;28;20524;-80
2023/05/03 02:56:26;;;;;;;1.00;0.30;;;3.80;99.90;;;;;;5009283;28;20030;-80
2023/05/03 02:58:52;;;;;;;1.05;0.30;;;3.70;99.90;;;;;;4992840;28;20026;-80
2023/05/03 03:01:19;;;;;;;1.40;0.20;;;3.70;99.90;;;;;;4991217;28;20038;-80
2023/05/03 03:03:45;;;;;;;1.15;0.25;;;3.70;99.90;;;;;;4988735;28;20038;-79
2023/05/03 03:06:11;;;;;;;1.00;0.20;;;3.70;99.90;;;;;;4993216;28;20022;-80
2023/05/03 03:08:37;;;;;;;1.15;0.30;;;3.70;99.90;;;;;;4993254;28;20124;-81
2023/05/03 03:11:04;;;;;;;1.83;0.30;;;3.70;99.90;;;;;;5009384;28;20033;-80
2023/05/03 03:13:31;;;;;;;2.10;0.28;;;3.70;99.90;;;;;;4989632;28;20034;-80
2023/05/03 03:15:58;;;;;;;1.30;0.30;;;3.70;99.90;;;;;;5001617;28;20033;-80
2023/05/03 03:18:24;;;;;;;1.80;0.30;;;3.70;99.90;;;;;;5006258;28;20080;-81
2023/05/03 03:20:50;;;;;;;1.23;0.30;;;3.70;99.90;;;;;;5008059;28;20033;-80
2023/05/03 03:23:16;;;;;;;3.40;0.30;;;3.70;99.90;;;;;;4993078;28;20045;-80
2023/05/03 03:25:42;;;;;;;1.05;0.35;;;3.60;99.90;;;;;;5010542;28;20465;-80
2023/05/03 03:28:08;;;;;;;0.93;0.20;;;3.70;99.90;;;;;;5008338;28;20034;-80
2023/05/03 03:30:34;;;;;;;2.22;0.30;;;3.70;99.90;;;;;;4992486;28;20030;-81
2023/05/03 03:33:11;;;;;;;1.75;0.35;;;3.70;99.90;;;;;;5016881;28;20026;-81
2023/05/03 03:35:39;;;;;;;1.23;0.30;;;3.70;99.90;;;;;;5007921;28;20042;-80
2023/05/03 03:38:05;;;;;;;1.20;0.30;;;3.70;99.90;;;;;;5008945;28;20107;-81
2023/05/03 03:40:34;;;;;;;0.85;0.30;;;3.70;99.90;;;;;;4992767;28;20021;-81
2023/05/03 03:43:00;;;;;;;1.17;0.38;;;3.60;99.90;;;;;;4992252;28;20517;-80
2023/05/03 03:45:25;;;;;;;1.15;0.30;;;3.60;99.90;;;;;;5004690;28;20031;-80
2023/05/03 03:47:52;;;;;;;1.30;0.40;;;3.50;99.90;;;;;;5006423;28;20030;-80
2023/05/03 03:50:19;;;;;;;1.95;0.35;;;3.50;99.90;;;;;;5003056;28;20022;-81
2023/05/03 03:52:45;;;;;;;2.58;0.70;;;3.40;99.90;;;;;;4991251;28;20170;-80
2023/05/03 03:55:11;;;;;;;2.10;0.40;;;3.30;99.90;;;;;;4991793;28;20117;-80
2023/05/03 03:57:37;;;;;;;1.30;0.30;;;3.30;99.90;;;;;;5007845;28;20504;-80
2023/05/03 04:00:09;;;;;;;1.25;0.40;;;3.30;99.90;;;;;;5008202;28;20236;-81
2023/05/03 04:02:38;;;;;;;2.10;0.35;;;3.30;99.90;;;;;;5009136;28;20042;-80
2023/05/03 04:05:07;;;;;;;1.25;0.40;;;3.40;99.90;;;;;;4992456;28;20065;-80
2023/05/03 04:07:34;;;;;;;1.42;0.30;;;3.30;99.90;;;;;;4991454;28;20570;-80
2023/05/03 04:10:00;;;;;;;0.95;0.40;;;3.20;99.90;;;;;;5025235;28;20026;-81
2023/05/03 04:12:26;;;;;;;0.80;0.30;;;3.20;99.90;;;;;;4991636;28;20475;-81
2023/05/03 04:14:52;;;;;;;1.00;0.30;;;3.20;99.90;;;;;;4991606;28;20038;-80
2023/05/03 04:17:18;;;;;;;2.15;0.30;;;3.00;99.90;;;;;;4989788;28;20036;-81
2023/05/03 04:19:44;;;;;;;0.70;0.30;;;3.10;99.90;;;;;;4991406;28;20127;-80
2023/05/03 04:22:11;;;;;;;2.00;0.35;;;3.10;99.90;;;;;;5005867;28;20540;-81
2023/05/03 04:24:38;;;;;;;1.30;0.30;;;3.10;99.90;;;;;;5003242;28;20116;-81
2023/05/03 04:27:05;;;;;;;1.90;0.40;;;3.00;99.90;;;;;;5003767;28;20029;-81
2023/05/03 04:29:33;;;;;;;1.58;0.30;;;3.00;99.90;;;;;;5007381;28;20371;-81
2023/05/03 04:32:01;;;;;;;0.98;0.35;;;3.10;99.90;;;;;;5002094;28;20133;-81
2023/05/03 04:34:30;;;;;;;2.13;0.40;;;3.10;99.90;;;;;;5023471;28;20103;-81
2023/05/03 04:36:56;;;;;;;1.35;0.30;;;3.10;99.90;;;;;;5007385;28;20069;-80
2023/05/03 04:39:21;;;;;;;3.05;0.40;;;3.10;99.90;;;;;;5006658;28;20050;-80
2023/05/03 04:41:47;;;;;;;1.20;0.30;;;3.20;99.90;;;;;;5007068;28;20550;-81
2023/05/03 04:44:13;;;;;;;0.70;0.30;;;3.20;99.90;;;;;;5006874;28;20497;-81
2023/05/03 04:46:40;;;;;;;1.52;0.40;;;3.20;99.90;;;;;;4987894;28;20026;-81
2023/05/03 04:49:06;;;;;;;0.90;0.30;;;3.20;99.90;;;;;;4991353;28;20026;-81
2023/05/03 04:51:32;;;;;;;0.98;0.38;;;3.30;99.90;;;;;;4991099;28;20057;-81
2023/05/03 04:53:58;;;;;;;1.27;0.30;;;3.40;99.90;;;;;;5006939;28;20112;-81
2023/05/03 04:56:34;;;;;;;1.60;0.30;;;3.40;99.90;;;;;;4991211;28;20525;-80
2023/05/03 04:59:09;;;;;;;0.77;0.40;;;3.40;99.90;;;;;;4994015;28;20387;-81
2023/05/03 05:01:36;;;;;;;1.65;0.40;;;3.50;99.90;;;;;;4986718;28;20402;-81
2023/05/03 05:04:03;;;;;;;0.80;0.35;;;3.60;99.90;;;;;;4990081;28;20034;-81
2023/05/03 05:06:38;;;;;;;1.67;0.70;;;3.70;99.90;;;;;;4991902;28;20574;-81
2023/05/03 05:09:06;;;;;;;1.80;0.50;;;3.70;99.90;;;;;;4994835;28;20022;-81
2023/05/03 05:11:33;;;;;;;5.53;0.40;;;3.70;99.90;;;;;;5009583;28;20076;-81
2023/05/03 05:13:59;;;;;;;1.00;0.50;;;3.80;99.90;;;;;;5007675;28;20199;-81
2023/05/03 05:16:25;;;;;;;2.90;0.40;;;3.80;99.90;;;;;;5002961;28;20033;-81
2023/05/03 05:18:52;;;;;;;1.10;0.40;;;3.90;99.90;;;;;;4956384;28;20049;-81
2023/05/03 05:21:21;;;;;;;1.65;0.60;;;4.00;99.90;;;;;;4996126;28;20048;-81
2023/05/03 05:23:47;;;;;;;2.50;0.40;;;4.10;99.90;;;;;;4981127;28;20050;-81
2023/05/03 05:26:12;;;;;;;1.50;0.40;;;4.10;99.90;;;;;;4979297;28;20033;-81
2023/05/03 05:28:40;;;;;;;2.67;0.60;;;4.20;99.90;;;;;;4979660;28;20231;-82
2023/05/03 05:31:06;;;;;;;2.00;0.50;;;4.30;99.90;;;;;;4980510;28;20058;-81
2023/05/03 05:33:32;;;;;;;3.30;0.60;;;4.30;99.90;;;;;;4997505;28;20071;-82
2023/05/03 05:35:58;;;;;;;2.95;0.50;;;4.40;99.90;;;;;;5006799;28;20026;-81
2023/05/03 05:38:24;;;;;;;0.93;0.40;;;4.50;99.90;;;;;;5006727;28;20511;-82
2023/05/03 05:40:53;;;;;;;1.90;0.50;;;4.50;99.90;;;;;;4990551;28;20113;-81
2023/05/03 05:43:19;;;;;;;1.10;0.40;;;4.60;99.90;;;;;;5007363;28;20478;-82
2023/05/03 05:45:45;;;;;;;1.85;0.60;;;4.70;99.90;;;;;;4985733;28;20559;-82
2023/05/03 05:48:12;;;;;;;3.60;0.55;;;4.80;99.90;;;;;;4991523;28;20032;-82
2023/05/03 05:50:38;;;;;;;1.70;0.40;;;4.80;99.90;;;;;;4991609;28;20041;-82
2023/05/03 05:53:08;;;;;;;1.40;0.43;;;4.90;99.90;;;;;;4985806;28;20022;-82
2023/05/03 05:55:38;;;;;;;1.70;0.45;;;5.00;99.90;;;;;;5007293;28;20046;-81
2023/05/03 05:58:04;;;;;;;1.33;0.50;;;5.10;99.90;;;;;;5008442;28;20578;-82
2023/05/03 06:00:37;;;;;;;2.55;0.65;;;5.20;99.90;;;;;;5007202;28;20036;-82
2023/05/03 06:03:03;;;;;;;2.28;0.40;;;5.40;99.90;;;;;;5006145;28;20041;-81
2023/05/03 06:05:29;;;;;;;2.05;0.50;;;5.50;99.90;;;;;;4986329;28;20080;-82
2023/05/03 06:07:54;;;;;;;1.13;0.50;;;5.70;99.90;;;;;;4989853;28;20042;-82
2023/05/03 06:10:21;;;;;;;2.03;0.50;;;5.80;99.90;;;;;;5007154;28;20937;-82
2023/05/03 06:12:50;;;;;;;2.22;0.60;;;5.90;99.90;;;;;;5006663;28;20136;-82
2023/05/03 06:15:19;;;;;;;2.42;0.50;;;6.10;99.90;;;;;;5006599;28;20398;-82
2023/05/03 06:17:46;;;;;;;1.92;0.50;;;6.30;99.90;;;;;;4983504;28;20280;-82
2023/05/03 06:20:12;;;;;;;2.33;0.50;;;6.50;99.90;;;;;;5005921;28;20322;-82
2023/05/03 06:22:39;;;;;;;3.22;0.50;;;6.70;99.90;;;;;;5002241;28;20053;-82
2023/05/03 06:25:08;;;;;;;2.40;0.57;;;7.00;99.90;;;;;;5006821;28;20026;-82
2023/05/03 06:27:35;;;;;;;1.35;0.40;;;7.30;99.90;;;;;;5006526;28;20033;-82
2023/05/03 06:30:01;;;;;;;1.45;0.50;;;7.50;99.90;;;;;;5023277;28;20022;-82
2023/05/03 06:32:27;;;;;;;1.05;0.40;;;7.70;99.90;;;;;;4984617;28;20060;-83
2023/05/03 06:34:53;;;;;;;1.55;0.40;;;8.00;99.90;;;;;;4984084;28;20041;-83
2023/05/03 06:37:19;;;;;;;1.92;0.50;;;8.00;99.90;;;;;;4990302;28;20034;-82
2023/05/03 06:39:44;;;;;;;1.42;0.50;;;8.20;99.90;;;;;;5007155;28;20538;-82
2023/05/03 06:42:10;;;;;;;3.00;0.50;;;8.40;99.90;;;;;;5007098;28;20045;-82
2023/05/03 06:44:38;;;;;;;2.42;0.50;;;8.60;99.90;;;;;;4984605;28;20735;-83
2023/05/03 06:47:04;;;;;;;0.95;0.40;;;8.70;99.90;;;;;;5007080;28;20041;-83
2023/05/03 06:49:32;;;;;;;2.80;0.40;;;8.90;99.90;;;;;;4989579;28;20061;-82
2023/05/03 06:51:58;;;;;;;1.52;0.45;;;9.00;99.90;;;;;;4981351;28;20034;-83
2023/05/03 06:54:24;;;;;;;1.48;0.40;;;9.00;99.90;;;;;;5006978;28;20109;-83
2023/05/03 06:56:49;;;;;;;2.03;0.40;;;9.10;99.90;;;;;;5006276;28;20376;-83
2023/05/03 06:59:15;;;;;;;2.30;0.38;;;9.20;99.90;;;;;;5007407;28;20072;-83
2023/05/03 07:01:41;;;;;;;1.92;0.30;;;9.50;99.90;;;;;;5006416;28;20045;-83
2023/05/03 07:04:07;;;;;;;1.95;0.30;;;9.50;99.90;;;;;;4990351;28;20046;-83
2023/05/03 07:06:32;;;;;;;0.93;0.28;;;9.60;99.90;;;;;;4987695;28;20045;-82
2023/05/03 07:08:58;;;;;;;2.85;0.30;;;9.60;99.90;;;;;;5000115;28;20085;-82
2023/05/03 07:11:24;;;;;;;1.40;0.55;;;9.70;99.90;;;;;;5022941;28;20053;-83
2023/05/03 07:13:50;;;;;;;1.80;0.30;;;9.70;99.90;;;;;;5004896;28;20050;-81
2023/05/03 07:16:17;;;;;;;2.28;0.30;;;9.90;99.90;;;;;;5004741;28;20030;-83
2023/05/03 07:18:43;;;;;;;2.25;0.40;;;10.20;99.90;;;;;;5001392;28;20112;-84
2023/05/03 07:21:09;;;;;;;1.48;0.30;;;10.00;99.90;;;;;;5000981;28;20033;-83
2023/05/03 07:23:35;;;;;;;1.60;0.25;;;10.20;99.90;;;;;;5005565;28;20099;-83
2023/05/03 07:26:00;;;;;;;1.42;0.30;;;10.40;99.90;;;;;;5005429;28;20026;-84
2023/05/03 07:28:26;;;;;;;1.02;0.20;;;10.50;99.90;;;;;;4983371;28;20367;-83
2023/05/03 07:30:52;;;;;;;1.42;0.30;;;10.60;99.90;;;;;;5005535;28;20041;-83
2023/05/03 07:33:17;;;;;;;1.48;0.20;;;10.60;99.90;;;;;;5022513;28;20121;-83
2023/05/03 07:35:47;;;;;;;1.05;0.20;;;10.80;99.90;;;;;;4988780;28;20486;-83
2023/05/03 07:38:13;;;;;;;1.10;0.25;;;10.90;99.90;;;;;;5006080;28;20041;-83
2023/05/03 07:40:40;;;;;;;1.58;0.20;;;11.10;99.90;;;;;;4993030;28;20577;-85
2023/05/03 07:43:08;;;;;;;2.22;0.10;;;11.30;99.90;;;;;;5005134;28;20177;-83
2023/05/03 07:45:37;;;;;;;0.77;0.20;;;11.30;99.90;;;;;;4999537;28;20037;-83
2023/05/03 07:48:03;;;;;;;0.80;0.20;;;11.40;99.90;;;;;;5004741;28;20030;-83
2023/05/03 07:50:30;;;;;;;1.33;0.20;;;11.70;99.90;;;;;;4980686;28;20557;-83
2023/05/03 07:52:56;;;;;;;1.52;0.10;;;11.80;99.90;;;;;;5005255;28;20067;-84
2023/05/03 07:55:22;;;;;;;1.92;0.13;;;11.60;99.90;;;;;;5010286;28;20489;-83
2023/05/03 07:57:48;;;;;;;1.30;0.20;;;11.60;99.90;;;;;;5021913;28;20033;-84
2023/05/03 08:00:16;;;;;;;2.03;0.20;;;11.70;99.90;;;;;;4985881;28;20379;-84
2023/05/03 08:02:41;;;;;;;2.53;0.20;;;11.70;99.90;;;;;;4987506;28;20042;-84
2023/05/03 08:05:09;;;;;;;1.38;0.20;;;11.90;99.90;;;;;;4989064;28;20041;-84
2023/05/03 08:07:34;;;;;;;1.02;0.10;;;12.00;99.90;;;;;;5003907;28;20030;-84
2023/05/03 08:10:01;;;;;;;2.90;0.10;;;12.40;99.90;;;;;;5005134;28;20025;-83
2023/05/03 08:12:27;;;;;;;1.67;0.20;;;12.50;99.90;;;;;;5020138;28;20030;-83
2023/05/03 08:14:54;;;;;;;0.60;0.20;;;12.00;99.90;;;;;;5002856;28;20321;-84
2023/05/03 08:17:22;;;;;;;1.73;0.20;;;12.00;99.90;;;;;;4983508;28;20505;-83
2023/05/03 08:19:51;;;;;;;1.48;0.20;;;11.90;99.90;;;;;;5000486;28;20164;-84
2023/05/03 08:22:17;;;;;;;0.90;0.20;;;12.10;99.90;;;;;;5002471;28;20467;-83
2023/05/03 08:24:42;;;;;;;1.55;0.22;;;12.20;99.90;;;;;;5021102;28;20044;-84
2023/05/03 08:27:09;;;;;;;1.20;0.20;;;12.20;99.90;;;;;;4993840;28;20018;-84
2023/05/03 08:29:38;;;;;;;2.05;0.20;;;12.20;99.90;;;;;;5021282;28;20152;-83
2023/05/03 08:32:04;;;;;;;0.77;0.20;;;12.10;99.90;;;;;;4986773;28;20627;-83
2023/05/03 08:34:30;;;;;;;1.65;0.20;;;12.50;99.90;;;;;;5005047;28;20359;-84
2023/05/03 08:36:56;;;;;;;1.02;0.10;;;12.60;99.90;;;;;;4988421;28;20034;-84
2023/05/03 08:39:25;;;;;;;0.73;0.20;;;13.10;99.90;;;;;;5004635;28;20030;-84
2023/05/03 08:41:53;;;;;;;1.00;0.20;;;12.90;99.90;;;;;;4995692;28;20041;-84
2023/05/03 08:44:23;;;;;;;0.55;0.20;;;12.90;99.90;;;;;;5004480;28;20494;-84
2023/05/03 08:46:49;;;;;;;;;;;13.10;99.90;;;;;;4979326;28;20368;-84
2023/05/03 08:49:16;;;;;;;0.75;0.10;;;13.30;99.90;;;;;;4981183;28;19916;-84
2023/05/03 08:51:45;;;;;;;2.15;0.10;;;13.50;99.90;;;;;;4983078;28;20038;-85
2023/05/03 08:54:13;;;;;;;1.00;0.20;;;13.50;99.90;;;;;;4984314;28;20204;-84
2023/05/03 08:56:41;;;;;;;2.10;0.17;;;13.80;99.90;;;;;;5003146;28;20386;-83
2023/05/03 08:59:08;;;;;;;2.03;0.20;;;13.60;99.90;;;;;;5020838;28;20021;-84
2023/05/03 09:01:40;;;;;;;1.65;0.20;;;13.30;99.90;;;;;;5004595;28;20026;-84
2023/05/03 09:04:07;;;;;;;0.98;0.10;;;13.50;99.90;;;;;;4987731;28;20082;-85
2023/05/03 09:06:33;;;;;;;2.13;0.20;;;13.50;99.90;;;;;;5009185;28;20025;-84
2023/05/03 09:09:00;;;;;;;1.73;0.20;;;13.70;99.90;;;;;;5005956;28;20029;-87
2023/05/03 09:11:29;;;;;;;2.22;0.20;;;14.10;99.90;;;;;;5021861;28;20040;-86
2023/05/03 09:14:10;;;;;;;1.08;0.20;;;14.10;99.90;;;;;;4986677;28;20046;-85
2023/05/03 09:16:37;;;;;;;1.25;0.20;;;14.40;99.90;;;;;;4982407;28;20026;-86
2023/05/03 09:19:08;;;;;;;2.60;0.15;;;14.40;99.90;;;;;;5003403;28;20386;-84
2023/05/03 09:21:34;;;;;;;1.13;0.20;;;14.40;99.90;;;;;;5008081;28;20030;-85
2023/05/03 09:24:02;;;;;;;1.25;0.20;;;14.60;99.90;;;;;;4979221;28;20041;-85
2023/05/03 09:26:33;;;;;;;0.75;0.20;;;14.50;99.90;;;;;;5003895;28;20030;-84
2023/05/03 09:29:00;;;;;;;1.70;0.30;;;14.50;99.90;;;;;;4983465;28;20064;-84
2023/05/03 09:31:28;;;;;;;0.95;0.20;;;14.30;99.90;;;;;;4980662;28;20080;-84
2023/05/03 09:33:54;;;;;;;1.67;0.20;;;14.10;99.90;;;;;;4987948;28;20123;-86
2023/05/03 09:36:20;;;;;;;2.15;0.22;;;14.80;99.90;;;;;;5003333;28;20497;-85
2023/05/03 09:38:46;;;;;;;0.80;0.20;;;14.70;99.90;;;;;;5003551;28;20038;-86
2023/05/03 09:41:12;;;;;;;0.82;0.20;;;14.70;99.90;;;;;;4981355;28;20128;-86
2023/05/03 09:43:52;;;;;;;1.80;0.20;;;14.70;99.90;;;;;;4981787;28;20180;-85
2023/05/03 09:46:18;;;;;;;1.20;0.20;;;14.80;99.90;;;;;;5001924;28;20041;-84
2023/05/03 09:48:44;;;;;;;1.33;0.25;;;14.50;99.90;;;;;;4981938;28;20034;-84
2023/05/03 09:51:11;;;;;;;1.45;0.20;;;14.90;99.90;;;;;;4983651;28;20077;-85
2023/05/03 09:53:39;;;;;;;1.08;0.20;;;14.70;99.90;;;;;;4981249;28;20076;-85
2023/05/03 09:56:08;;;;;;;1.90;0.20;;;14.90;99.90;;;;;;5023938;28;20117;-85
2023/05/03 09:58:35;;;;;;;2.38;0.30;;;14.90;99.90;;;;;;4983431;28;20038;-86
2023/05/03 10:01:01;;;;;;;0.77;0.20;;;15.10;99.90;;;;;;4990687;28;20025;-86
2023/05/03 10:03:40;;;;;;;0.55;0.20;;;15.30;99.90;;;;;;5005927;28;20232;-85
2023/05/03 10:06:31;;;;;;;1.83;0.30;;;14.40;99.90;;;;;;4988781;28;20093;-86
2023/05/03 10:09:23;;;;;;;2.28;0.30;;;14.30;99.90;;;;;;4991251;28;20602;-86
2023/05/03 10:11:51;;;;;;;1.52;0.30;;;14.80;99.90;;;;;;4986049;28;20032;-86
2023/05/03 10:14:21;;;;;;;1.35;0.20;;;14.90;99.90;;;;;;4985099;28;20046;-86
2023/05/03 10:16:50;;;;;;;2.70;0.20;;;15.20;99.90;;;;;;5000594;28;20033;-86
2023/05/03 10:19:49;;;;;;;6.77;0.80;;;15.20;99.90;;;;;;5007661;28;20093;-86
2023/05/03 10:22:15;;;;;;;1.40;0.20;;;13.90;99.90;;;;;;4983621;28;20406;-85
2023/05/03 10:25:00;;;;;;;2.10;0.30;;;14.60;99.90;;;;;;4990993;28;20121;-84
2023/05/03 10:27:45;;;;;;;1.27;0.20;;;15.20;99.90;;;;;;4990328;28;20470;-85
2023/05/03 10:30:31;;;;;;;1.52;0.22;;;15.30;99.90;;;;;;5005515;28;20032;-85
2023/05/03 10:32:58;;;;;;;0.63;0.30;;;15.20;99.90;;;;;;4986588;28;20034;-85
2023/05/03 10:35:28;;;;;;;1.15;0.20;;;15.40;99.90;;;;;;5006482;28;20057;-84
2023/05/03 10:37:58;;;;;;;0.70;0.20;;;15.70;99.90;;;;;;4982601;28;20378;-85
2023/05/03 10:40:40;;;;;;;2.25;0.25;;;15.80;99.90;;;;;;4985540;28;20030;-84
2023/05/03 10:43:06;;;;;;;1.65;0.30;;;15.50;99.90;;;;;;4985897;28;20077;-85
2023/05/03 10:45:33;;;;;;;2.15;0.40;;;15.50;99.90;;;;;;5006888;28;20064;-85
2023/05/03 10:48:11;;;;;;;2.47;0.40;;;15.00;99.90;;;;;;5006773;28;20080;-84
2023/05/03 10:50:38;;;;;;;0.90;0.20;;;15.30;99.90;;;;;;5008471;28;20037;-85
2023/05/03 10:53:04;;;;;;;2.63;0.40;;;15.80;99.90;;;;;;4988373;28;20025;-85
2023/05/03 10:55:30;;;;;;;1.65;0.20;;;15.90;99.90;;;;;;5004308;28;20484;-84
2023/05/03 10:57:58;;;;;;;2.30;0.20;;;15.90;99.90;;;;;;5023351;28;20022;-85
2023/05/03 11:00:42;;;;;;;1.88;0.40;;;15.80;99.90;;;;;;4985356;28;20096;-86
2023/05/03 11:03:17;;;;;;;1.70;0.20;;;15.10;99.90;;;;;;5006790;28;20044;-86
2023/05/03 11:05:43;;;;;;;0.90;0.30;;;15.60;99.90;;;;;;4985742;28;20029;-85
2023/05/03 11:08:20;;;;;;;1.15;0.20;;;15.60;99.90;;;;;;5006051;28;20496;-85
2023/05/03 11:10:48;;;;;;;0.90;0.20;;;15.70;99.90;;;;;;5007124;28;20428;-87
2023/05/03 11:13:14;;;;;;;1.40;0.30;;;15.70;99.90;;;;;;4996608;28;20034;-85
2023/05/03 11:15:41;;;;;;;1.20;0.20;;;15.60;99.90;;;;;;4982445;28;20045;-84
2023/05/03 11:18:08;;;;;;;2.40;0.30;;;15.60;99.90;;;;;;4990196;28;20478;-86
2023/05/03 11:20:35;;;;;;;1.60;0.45;;;15.10;99.90;;;;;;5005826;28;20026;-84
2023/05/03 11:23:02;;;;;;;0.73;0.20;;;15.40;99.90;;;;;;5006069;28;20038;-85
2023/05/03 11:25:28;;;;;;;1.05;0.20;;;16.00;99.90;;;;;;4987766;28;20184;-85
2023/05/03 11:27:54;;;;;;;0.60;0.20;;;16.40;99.90;;;;;;4990335;28;20029;-86
2023/05/03 11:30:20;;;;;;;0.40;0.13;;;16.30;99.90;;;;;;5010204;28;20104;-86
2023/05/03 11:32:46;;;;;;;0.90;0.20;;;16.40;99.90;;;;;;5005906;28;20283;-85
2023/05/03 11:35:12;;;;;;;1.05;0.20;;;16.30;99.90;;;;;;5006268;28;20041;-86
2023/05/03 11:37:38;;;;;;;0.63;0.20;;;15.70;99.90;;;;;;4989105;28;20084;-85
2023/05/03 11:40:07;;;;;;;2.35;0.30;;;15.90;99.90;;;;;;5022511;28;20088;-85
2023/05/03 11:42:33;;;;;;;0.77;0.20;;;16.10;99.90;;;;;;4981109;28;20033;-85
2023/05/03 11:45:00;;;;;;;1.50;0.30;;;16.40;99.90;;;;;;4984802;28;20034;-86
2023/05/03 11:47:26;;;;;;;1.05;0.30;;;16.00;99.90;;;;;;5004985;28;20026;-85
2023/05/03 11:49:53;;;;;;;1.25;0.38;;;16.30;99.90;;;;;;5005830;28;20026;-86
2023/05/03 11:52:23;;;;;;;2.15;0.30;;;15.50;99.90;;;;;;4982904;28;20103;-84
2023/05/03 11:54:53;;;;;;;1.85;0.35;;;16.10;99.90;;;;;;5003436;28;20029;-85
2023/05/03 11:57:20;;;;;;;3.00;0.30;;;16.20;99.90;;;;;;5001282;28;20037;-86
2023/05/03 11:59:48;;;;;;;1.75;0.20;;;16.10;99.90;;;;;;5005654;28;20111;-85
2023/05/03 12:02:14;;;;;;;3.10;0.22;;;16.90;99.90;;;;;;4982481;28;20057;-84
2023/05/03 12:04:42;;;;;;;0.90;0.20;;;16.50;99.90;;;;;;4993753;28;20129;-84
2023/05/03 12:07:12;;;;;;;3.58;0.20;;;16.30;99.90;;;;;;4982098;28;20030;-84
2023/05/03 12:09:38;;;;;;;;;;;16.20;99.90;;;;;;4983305;28;20045;-85
2023/05/03 12:12:04;;;;;;;0.57;0.20;;;16.00;99.90;;;;;;4985400;28;19909;-85
2023/05/03 12:14:57;;;;;;;0.68;0.10;;;16.00;99.90;;;;;;4982005;28;20050;-85
2023/05/03 12:17:39;;;;;;;1.02;0.20;;;16.40;99.90;;;;;;4990452;28;20471;-84
2023/05/03 12:20:21;;;;;;;0.80;0.20;;;16.30;99.90;;;;;;5022072;28;20194;-86
2023/05/03 12:22:52;;;;;;;0.70;0.20;;;16.10;99.90;;;;;;5018825;28;20049;-85
2023/05/03 12:25:18;;;;;;;1.05;0.20;;;16.30;99.90;;;;;;5003555;28;20336;-84
2023/05/03 12:27:44;;;;;;;1.10;0.20;;;16.10;99.90;;;;;;5005026;28;20104;-86
2023/05/03 12:30:10;;;;;;;0.32;0.10;;;16.20;99.90;;;;;;4988751;28;20301;-88
2023/05/03 12:32:39;;;;;;;1.23;0.20;;;16.40;99.90;;;;;;4988538;28;20069;-86
2023/05/03 12:35:10;;;;;;;0.80;0.20;;;16.80;99.90;;;;;;5021214;28;20038;-86
2023/05/03 12:37:36;;;;;;;0.90;0.15;;;16.60;99.90;;;;;;4980945;28;20030;-87
2023/05/03 12:40:05;;;;;;;1.17;0.30;;;16.50;99.90;;;;;;4983654;28;20397;-86
2023/05/03 12:42:31;;;;;;;1.15;0.28;;;16.60;99.90;;;;;;4979962;28;20061;-85
2023/05/03 12:44:58;;;;;;;3.63;0.30;;;16.80;99.90;;;;;;5005647;28;20033;-86
2023/05/03 12:47:24;;;;;;;0.90;0.20;;;16.90;99.90;;;;;;4997296;28;20030;-86
2023/05/03 12:49:50;;;;;;;1.52;0.40;;;16.70;99.90;;;;;;4982634;28;20036;-85
2023/05/03 12:52:16;;;;;;;1.13;0.30;;;16.20;99.90;;;;;;4987696;28;20030;-85
2023/05/03 12:54:42;;;;;;;1.00;0.20;;;16.40;99.90;;;;;;5003982;28;20042;-85
2023/05/03 12:57:08;;;;;;;1.98;0.20;;;16.50;99.90;;;;;;4980167;28;20122;-85